sensor_id;sensor_type;location;lat;lon;timestamp;temperature;humidity
74901;DHT22;63461;51.416;6.758;2023-04-24T05:22:10;10.50;99.90
74901;DHT22;63461;51.416;6.758;2023-04-24T05:25:07;10.40;99.90
74901;DHT22;63461;51.416;6.758;2023-04-24T05:28:11;10.50;99.90
74901;DHT22;63461;51.416;6.758;2023-04-24T05:30:41;10.30;99.90
74901;DHT22;63461;51.416;6.758;2023-04-24T05:33:12;10.40;99.90
74901;DHT22;63461;51.416;6.758;2023-04-24T05:35:40;10.40;99.90
74901;DHT22;63461;51.416;6.758;2023-04-24T05:38:15;10.40;99.90
74901;DHT22;63461;51.416;6.758;2023-04-24T05:41:19;10.50;99.90
74901;DHT22;63461;51.416;6.758;2023-04-24T05:43:48;10.50;99.90
74901;DHT22;63461;51.416;6.758;2023-04-24T05:46:41;10.50;99.90
74901;DHT22;63461;51.416;6.758;2023-04-24T05:49:11;10.40;99.90
74901;DHT22;63461;51.416;6.758;2023-04-24T05:51:37;10.50;99.90
74901;DHT22;63461;51.416;6.758;2023-04-24T05:54:05;10.50;99.90
74901;DHT22;63461;51.416;6.758;2023-04-24T05:56:41;10.60;99.90
74901;DHT22;63461;51.416;6.758;2023-04-24T05:59:13;10.70;99.90
74901;DHT22;63461;51.416;6.758;2023-04-24T06:01:47;10.70;99.90
74901;DHT22;63461;51.416;6.758;2023-04-24T06:04:25;10.80;99.90
74901;DHT22;63461;51.416;6.758;2023-04-24T06:06:51;10.60;99.90
74901;DHT22;63461;51.416;6.758;2023-04-24T06:09:38;10.50;99.90
74901;DHT22;63461;51.416;6.758;2023-04-24T06:12:07;10.50;99.90
74901;DHT22;63461;51.416;6.758;2023-04-24T06:14:54;10.50;99.90
74901;DHT22;63461;51.416;6.758;2023-04-24T06:17:48;10.60;99.90
74901;DHT22;63461;51.416;6.758;2023-04-24T06:20:16;10.60;99.90
74901;DHT22;63461;51.416;6.758;2023-04-24T06:22:49;10.50;99.90
74901;DHT22;63461;51.416;6.758;2023-04-24T06:25:18;10.70;99.90
74901;DHT22;63461;51.416;6.758;2023-04-24T06:27:44;10.70;99.90
74901;DHT22;63461;51.416;6.758;2023-04-24T06:30:25;10.60;99.90
74901;DHT22;63461;51.416;6.758;2023-04-24T06:36:00;10.70;99.90
74901;DHT22;63461;51.416;6.758;2023-04-24T06:38:33;10.70;99.90
74901;DHT22;63461;51.416;6.758;2023-04-24T06:41:18;10.70;99.90
74901;DHT22;63461;51.416;6.758;2023-04-24T06:44:05;10.40;99.90
74901;DHT22;63461;51.416;6.758;2023-04-24T06:46:32;10.60;99.90
74901;DHT22;63461;51.416;6.758;2023-04-24T06:49:01;10.50;99.90
74901;DHT22;63461;51.416;6.758;2023-04-24T06:51:31;10.40;99.90
74901;DHT22;63461;51.416;6.758;2023-04-24T06:54:07;10.40;99.90
74901;DHT22;63461;51.416;6.758;2023-04-24T06:56:36;10.40;99.90
74901;DHT22;63461;51.416;6.758;2023-04-24T06:59:07;10.50;99.90
74901;DHT22;63461;51.416;6.758;2023-04-24T07:01:42;10.30;99.90
74901;DHT22;63461;51.416;6.758;2023-04-24T07:04:11;10.40;99.90
74901;DHT22;63461;51.416;6.758;2023-04-24T07:06:41;10.40;99.90
74901;DHT22;63461;51.416;6.758;2023-04-24T07:09:18;10.50;99.90
74901;DHT22;63461;51.416;6.758;2023-04-24T07:11:59;10.40;99.90
74901;DHT22;63461;51.416;6.758;2023-04-24T07:14:25;10.50;99.90
74901;DHT22;63461;51.416;6.758;2023-04-24T07:16:56;10.40;99.90
74901;DHT22;63461;51.416;6.758;2023-04-24T07:19:25;10.50;99.90
74901;DHT22;63461;51.416;6.758;2023-04-24T07:21:50;10.50;99.90
74901;DHT22;63461;51.416;6.758;2023-04-24T07:24:26;10.50;99.90
74901;DHT22;63461;51.416;6.758;2023-04-24T07:26:55;10.50;99.90
74901;DHT22;63461;51.416;6.758;2023-04-24T07:29:30;10.50;99.90
74901;DHT22;63461;51.416;6.758;2023-04-24T07:32:02;10.40;99.90
74901;DHT22;63461;51.416;6.758;2023-04-24T07:34:37;10.40;99.90
74901;DHT22;63461;51.416;6.758;2023-04-24T07:37:05;10.30;99.90
74901;DHT22;63461;51.416;6.758;2023-04-24T07:39:37;10.30;99.90
74901;DHT22;63461;51.416;6.758;2023-04-24T07:42:03;10.20;99.90
74901;DHT22;63461;51.416;6.758;2023-04-24T07:44:32;10.10;99.90
74901;DHT22;63461;51.416;6.758;2023-04-24T07:47:03;10.10;99.90
74901;DHT22;63461;51.416;6.758;2023-04-24T07:49:28;10.00;99.90
74901;DHT22;63461;51.416;6.758;2023-04-24T07:52:07;10.10;99.90
74901;DHT22;63461;51.416;6.758;2023-04-24T07:54:33;10.00;99.90
74901;DHT22;63461;51.416;6.758;2023-04-24T07:57:01;10.00;99.90
74901;DHT22;63461;51.416;6.758;2023-04-24T07:59:28;9.90;99.90
74901;DHT22;63461;51.416;6.758;2023-04-24T08:01:58;10.00;99.90
74901;DHT22;63461;51.416;6.758;2023-04-24T08:04:29;9.90;99.90
74901;DHT22;63461;51.416;6.758;2023-04-24T08:07:04;10.10;99.90
74901;DHT22;63461;51.416;6.758;2023-04-24T08:09:43;10.20;99.90
74901;DHT22;63461;51.416;6.758;2023-04-24T08:12:17;10.00;99.90
74901;DHT22;63461;51.416;6.758;2023-04-24T08:14:45;10.00;99.90
74901;DHT22;63461;51.416;6.758;2023-04-24T08:17:13;9.90;99.90
74901;DHT22;63461;51.416;6.758;2023-04-24T08:19:42;9.80;99.90
74901;DHT22;63461;51.416;6.758;2023-04-24T08:22:13;9.90;99.90
74901;DHT22;63461;51.416;6.758;2023-04-24T08:24:39;9.90;99.90
74901;DHT22;63461;51.416;6.758;2023-04-24T08:27:04;10.00;99.90
74901;DHT22;63461;51.416;6.758;2023-04-24T08:29:30;9.90;99.90
74901;DHT22;63461;51.416;6.758;2023-04-24T08:31:56;9.90;99.90
74901;DHT22;63461;51.416;6.758;2023-04-24T08:34:22;10.10;99.90
74901;DHT22;63461;51.416;6.758;2023-04-24T08:36:48;10.00;99.90
74901;DHT22;63461;51.416;6.758;2023-04-24T08:39:14;10.20;99.90
74901;DHT22;63461;51.416;6.758;2023-04-24T08:41:42;10.20;99.90
74901;DHT22;63461;51.416;6.758;2023-04-24T08:44:09;10.30;99.90
74901;DHT22;63461;51.416;6.758;2023-04-24T08:46:35;10.30;99.90
74901;DHT22;63461;51.416;6.758;2023-04-24T08:49:02;10.40;99.90
74901;DHT22;63461;51.416;6.758;2023-04-24T08:51:29;10.30;99.90
74901;DHT22;63461;51.416;6.758;2023-04-24T08:53:57;10.50;99.90
74901;DHT22;63461;51.416;6.758;2023-04-24T08:56:23;10.50;99.90
74901;DHT22;63461;51.416;6.758;2023-04-24T08:58:53;10.50;99.90
74901;DHT22;63461;51.416;6.758;2023-04-24T09:01:20;10.40;99.90
74901;DHT22;63461;51.416;6.758;2023-04-24T09:03:48;10.20;99.90
74901;DHT22;63461;51.416;6.758;2023-04-24T09:06:16;10.10;99.90
74901;DHT22;63461;51.416;6.758;2023-04-24T09:08:43;10.10;99.90
74901;DHT22;63461;51.416;6.758;2023-04-24T09:11:11;10.10;99.90
74901;DHT22;63461;51.416;6.758;2023-04-24T09:13:37;10.20;99.90
74901;DHT22;63461;51.416;6.758;2023-04-24T09:16:04;10.20;99.90
74901;DHT22;63461;51.416;6.758;2023-04-24T09:18:29;10.20;99.90
74901;DHT22;63461;51.416;6.758;2023-04-24T09:21:03;10.20;99.90
74901;DHT22;63461;51.416;6.758;2023-04-24T09:23:31;10.30;99.90
74901;DHT22;63461;51.416;6.758;2023-04-24T09:25:57;10.40;99.90
74901;DHT22;63461;51.416;6.758;2023-04-24T09:33:33;10.30;99.90
74901;DHT22;63461;51.416;6.758;2023-04-24T09:35:58;10.30;99.90
74901;DHT22;63461;51.416;6.758;2023-04-24T09:38:32;10.30;99.90
74901;DHT22;63461;51.416;6.758;2023-04-24T09:41:03;10.30;99.90
74901;DHT22;63461;51.416;6.758;2023-04-24T09:43:30;10.40;99.90
74901;DHT22;63461;51.416;6.758;2023-04-24T09:45:57;10.30;99.90
74901;DHT22;63461;51.416;6.758;2023-04-24T09:48:35;10.30;99.90
74901;DHT22;63461;51.416;6.758;2023-04-24T09:51:02;10.40;99.90
74901;DHT22;63461;51.416;6.758;2023-04-24T09:53:30;10.30;99.90
74901;DHT22;63461;51.416;6.758;2023-04-24T09:56:01;10.30;99.90
74901;DHT22;63461;51.416;6.758;2023-04-24T09:58:29;10.30;99.90
74901;DHT22;63461;51.416;6.758;2023-04-24T10:00:56;10.30;99.90
74901;DHT22;63461;51.416;6.758;2023-04-24T10:03:26;10.30;99.90
74901;DHT22;63461;51.416;6.758;2023-04-24T10:05:53;10.30;99.90
74901;DHT22;63461;51.416;6.758;2023-04-24T10:08:19;10.40;99.90
74901;DHT22;63461;51.416;6.758;2023-04-24T10:10:46;10.50;99.90
74901;DHT22;63461;51.416;6.758;2023-04-24T10:13:14;10.70;99.90
74901;DHT22;63461;51.416;6.758;2023-04-24T10:15:41;10.50;99.90
74901;DHT22;63461;51.416;6.758;2023-04-24T10:18:08;10.60;99.90
74901;DHT22;63461;51.416;6.758;2023-04-24T10:20:37;10.90;99.90
74901;DHT22;63461;51.416;6.758;2023-04-24T10:23:04;10.80;99.90
74901;DHT22;63461;51.416;6.758;2023-04-24T10:25:32;10.90;99.90
74901;DHT22;63461;51.416;6.758;2023-04-24T10:28:00;10.90;99.90
74901;DHT22;63461;51.416;6.758;2023-04-24T10:30:28;10.90;99.90
74901;DHT22;63461;51.416;6.758;2023-04-24T10:32:54;10.70;99.90
74901;DHT22;63461;51.416;6.758;2023-04-24T10:35:22;10.70;99.90
74901;DHT22;63461;51.416;6.758;2023-04-24T10:37:57;10.70;99.90
74901;DHT22;63461;51.416;6.758;2023-04-24T10:40:31;10.60;99.90
74901;DHT22;63461;51.416;6.758;2023-04-24T10:42:57;10.70;99.90
74901;DHT22;63461;51.416;6.758;2023-04-24T10:45:24;10.90;99.90
74901;DHT22;63461;51.416;6.758;2023-04-24T10:50:29;10.90;99.90
74901;DHT22;63461;51.416;6.758;2023-04-24T10:53:07;10.90;99.90
74901;DHT22;63461;51.416;6.758;2023-04-24T10:55:48;10.70;99.90
74901;DHT22;63461;51.416;6.758;2023-04-24T10:58:15;10.80;99.90
74901;DHT22;63461;51.416;6.758;2023-04-24T11:00:43;10.80;99.90
74901;DHT22;63461;51.416;6.758;2023-04-24T11:03:28;11.00;99.90
74901;DHT22;63461;51.416;6.758;2023-04-24T11:06:03;11.20;99.90
74901;DHT22;63461;51.416;6.758;2023-04-24T11:08:43;11.20;99.90
74901;DHT22;63461;51.416;6.758;2023-04-24T11:11:11;11.60;99.90
74901;DHT22;63461;51.416;6.758;2023-04-24T11:16:36;11.00;99.90
74901;DHT22;63461;51.416;6.758;2023-04-24T11:19:18;11.00;99.90
74901;DHT22;63461;51.416;6.758;2023-04-24T11:21:48;10.70;99.90
74901;DHT22;63461;51.416;6.758;2023-04-24T11:29:49;11.00;99.90
74901;DHT22;63461;51.416;6.758;2023-04-24T11:32:27;10.90;99.90
74901;DHT22;63461;51.416;6.758;2023-04-24T11:35:05;10.80;99.90
74901;DHT22;63461;51.416;6.758;2023-04-24T11:37:39;10.90;99.90
74901;DHT22;63461;51.416;6.758;2023-04-24T11:40:07;11.20;99.90
74901;DHT22;63461;51.416;6.758;2023-04-24T11:42:37;11.40;99.90
74901;DHT22;63461;51.416;6.758;2023-04-24T11:45:18;11.60;99.90
74901;DHT22;63461;51.416;6.758;2023-04-24T11:47:45;11.90;99.90
74901;DHT22;63461;51.416;6.758;2023-04-24T11:50:13;12.00;99.90
74901;DHT22;63461;51.416;6.758;2023-04-24T11:52:41;12.20;99.90
74901;DHT22;63461;51.416;6.758;2023-04-24T11:57:46;11.80;99.90
74901;DHT22;63461;51.416;6.758;2023-04-24T12:00:31;12.00;99.90
74901;DHT22;63461;51.416;6.758;2023-04-24T12:03:11;12.00;99.90
74901;DHT22;63461;51.416;6.758;2023-04-24T12:05:38;11.90;99.90
74901;DHT22;63461;51.416;6.758;2023-04-24T12:08:04;11.60;99.90
74901;DHT22;63461;51.416;6.758;2023-04-24T12:10:31;11.60;99.90
74901;DHT22;63461;51.416;6.758;2023-04-24T12:12:58;11.60;99.90
74901;DHT22;63461;51.416;6.758;2023-04-24T12:15:24;11.50;99.90
74901;DHT22;63461;51.416;6.758;2023-04-24T12:17:51;11.30;99.90
74901;DHT22;63461;51.416;6.758;2023-04-24T12:23:01;11.50;99.90
74901;DHT22;63461;51.416;6.758;2023-04-24T12:25:31;11.40;99.90
74901;DHT22;63461;51.416;6.758;2023-04-24T12:30:30;11.60;99.90
74901;DHT22;63461;51.416;6.758;2023-04-24T12:32:59;11.70;99.90
74901;DHT22;63461;51.416;6.758;2023-04-24T12:35:30;11.80;99.90
74901;DHT22;63461;51.416;6.758;2023-04-24T12:38:11;11.50;99.90
74901;DHT22;63461;51.416;6.758;2023-04-24T12:40:38;11.70;99.90
74901;DHT22;63461;51.416;6.758;2023-04-24T12:48:43;11.90;99.90
74901;DHT22;63461;51.416;6.758;2023-04-24T12:51:11;11.80;99.90
74901;DHT22;63461;51.416;6.758;2023-04-24T12:53:37;12.00;99.90
74901;DHT22;63461;51.416;6.758;2023-04-24T12:56:03;11.90;99.90
74901;DHT22;63461;51.416;6.758;2023-04-24T12:58:29;11.90;99.90
74901;DHT22;63461;51.416;6.758;2023-04-24T13:00:55;12.00;99.90
74901;DHT22;63461;51.416;6.758;2023-04-24T13:03:21;12.00;99.90
74901;DHT22;63461;51.416;6.758;2023-04-24T13:05:48;11.80;99.90
74901;DHT22;63461;51.416;6.758;2023-04-24T13:08:13;11.80;99.90
74901;DHT22;63461;51.416;6.758;2023-04-24T13:10:39;11.70;99.90
74901;DHT22;63461;51.416;6.758;2023-04-24T13:13:06;11.60;99.90
74901;DHT22;63461;51.416;6.758;2023-04-24T13:15:31;11.50;99.90
74901;DHT22;63461;51.416;6.758;2023-04-24T13:17:57;11.60;99.90
74901;DHT22;63461;51.416;6.758;2023-04-24T13:20:23;11.70;99.90
74901;DHT22;63461;51.416;6.758;2023-04-24T13:22:49;11.50;99.90
74901;DHT22;63461;51.416;6.758;2023-04-24T13:25:15;11.60;99.90
74901;DHT22;63461;51.416;6.758;2023-04-24T13:27:42;11.60;99.90
74901;DHT22;63461;51.416;6.758;2023-04-24T13:30:08;11.70;99.90
74901;DHT22;63461;51.416;6.758;2023-04-24T13:32:34;11.60;99.90
74901;DHT22;63461;51.416;6.758;2023-04-24T13:35:00;11.70;99.90
74901;DHT22;63461;51.416;6.758;2023-04-24T13:37:26;11.90;99.90
74901;DHT22;63461;51.416;6.758;2023-04-24T13:39:52;11.90;99.90
74901;DHT22;63461;51.416;6.758;2023-04-24T13:42:18;11.80;99.90
74901;DHT22;63461;51.416;6.758;2023-04-24T13:44:44;11.80;99.90
74901;DHT22;63461;51.416;6.758;2023-04-24T13:47:10;11.90;99.90
74901;DHT22;63461;51.416;6.758;2023-04-24T13:49:35;12.00;99.90
74901;DHT22;63461;51.416;6.758;2023-04-24T13:52:02;12.00;99.90
74901;DHT22;63461;51.416;6.758;2023-04-24T13:54:28;12.00;99.90
74901;DHT22;63461;51.416;6.758;2023-04-24T13:56:57;12.10;99.90
74901;DHT22;63461;51.416;6.758;2023-04-24T13:59:23;12.20;99.90
74901;DHT22;63461;51.416;6.758;2023-04-24T14:01:49;12.30;99.90
74901;DHT22;63461;51.416;6.758;2023-04-24T14:04:15;12.50;99.90
74901;DHT22;63461;51.416;6.758;2023-04-24T16:06:27;12.00;99.90
74901;DHT22;63461;51.416;6.758;2023-04-24T16:13:37;11.70;99.90
74901;DHT22;63461;51.416;6.758;2023-04-24T16:16:09;11.80;99.90
74901;DHT22;63461;51.416;6.758;2023-04-24T16:18:38;11.80;99.90
74901;DHT22;63461;51.416;6.758;2023-04-24T16:21:03;11.80;99.90
74901;DHT22;63461;51.416;6.758;2023-04-24T16:23:29;11.90;99.90
74901;DHT22;63461;51.416;6.758;2023-04-24T16:25:55;12.10;99.90
74901;DHT22;63461;51.416;6.758;2023-04-24T16:28:27;12.20;99.90
74901;DHT22;63461;51.416;6.758;2023-04-24T16:30:52;11.90;99.90
74901;DHT22;63461;51.416;6.758;2023-04-24T16:33:18;12.00;99.90
74901;DHT22;63461;51.416;6.758;2023-04-24T16:35:44;12.00;99.90
74901;DHT22;63461;51.416;6.758;2023-04-24T16:38:11;12.10;99.90
74901;DHT22;63461;51.416;6.758;2023-04-24T16:40:37;12.10;99.90
74901;DHT22;63461;51.416;6.758;2023-04-24T16:43:03;11.90;99.90
74901;DHT22;63461;51.416;6.758;2023-04-24T16:45:29;12.10;99.90
74901;DHT22;63461;51.416;6.758;2023-04-24T16:47:55;12.10;99.90
74901;DHT22;63461;51.416;6.758;2023-04-24T16:50:20;12.10;99.90
74901;DHT22;63461;51.416;6.758;2023-04-24T16:52:46;11.90;99.90
74901;DHT22;63461;51.416;6.758;2023-04-24T16:55:15;12.00;99.90
74901;DHT22;63461;51.416;6.758;2023-04-24T16:57:41;11.90;99.90
74901;DHT22;63461;51.416;6.758;2023-04-24T17:00:07;11.90;99.90
74901;DHT22;63461;51.416;6.758;2023-04-24T17:02:33;11.80;99.90
74901;DHT22;63461;51.416;6.758;2023-04-24T17:04:59;11.80;99.90
74901;DHT22;63461;51.416;6.758;2023-04-24T17:07:25;11.70;99.90
74901;DHT22;63461;51.416;6.758;2023-04-24T17:09:51;11.60;99.90
74901;DHT22;63461;51.416;6.758;2023-04-24T17:12:17;11.70;99.90
74901;DHT22;63461;51.416;6.758;2023-04-24T17:14:43;11.60;99.90
74901;DHT22;63461;51.416;6.758;2023-04-24T17:17:09;11.60;99.90
74901;DHT22;63461;51.416;6.758;2023-04-24T17:19:34;11.60;99.90
74901;DHT22;63461;51.416;6.758;2023-04-24T17:22:00;11.60;99.90
74901;DHT22;63461;51.416;6.758;2023-04-24T17:24:26;11.50;99.90
74901;DHT22;63461;51.416;6.758;2023-04-24T17:26:52;11.50;99.90
74901;DHT22;63461;51.416;6.758;2023-04-24T17:29:18;11.60;99.90
74901;DHT22;63461;51.416;6.758;2023-04-24T17:31:44;11.50;99.90
74901;DHT22;63461;51.416;6.758;2023-04-24T17:34:10;11.50;99.90
74901;DHT22;63461;51.416;6.758;2023-04-24T17:36:35;11.40;99.90
74901;DHT22;63461;51.416;6.758;2023-04-24T17:39:03;11.40;99.90
74901;DHT22;63461;51.416;6.758;2023-04-24T17:41:29;11.30;99.90
74901;DHT22;63461;51.416;6.758;2023-04-24T17:43:55;11.30;99.90
74901;DHT22;63461;51.416;6.758;2023-04-24T17:46:20;11.10;99.90
74901;DHT22;63461;51.416;6.758;2023-04-24T17:48:46;11.10;99.90
74901;DHT22;63461;51.416;6.758;2023-04-24T17:51:12;11.10;99.90
74901;DHT22;63461;51.416;6.758;2023-04-24T17:53:38;11.10;99.90
74901;DHT22;63461;51.416;6.758;2023-04-24T17:56:04;11.10;99.90
74901;DHT22;63461;51.416;6.758;2023-04-24T17:58:33;11.00;99.90
74901;DHT22;63461;51.416;6.758;2023-04-24T18:01:00;11.10;99.90
74901;DHT22;63461;51.416;6.758;2023-04-24T18:03:25;11.00;99.90
74901;DHT22;63461;51.416;6.758;2023-04-24T18:05:51;10.80;99.90
74901;DHT22;63461;51.416;6.758;2023-04-24T18:08:17;10.70;99.90
74901;DHT22;63461;51.416;6.758;2023-04-24T18:10:43;10.80;99.90
74901;DHT22;63461;51.416;6.758;2023-04-24T18:13:08;10.80;99.90
74901;DHT22;63461;51.416;6.758;2023-04-24T18:15:34;10.90;99.90
74901;DHT22;63461;51.416;6.758;2023-04-24T18:18:00;10.90;99.90
74901;DHT22;63461;51.416;6.758;2023-04-24T18:20:26;10.80;99.90
74901;DHT22;63461;51.416;6.758;2023-04-24T18:22:52;10.70;99.90
74901;DHT22;63461;51.416;6.758;2023-04-24T18:25:18;10.70;99.90
74901;DHT22;63461;51.416;6.758;2023-04-24T18:27:51;10.70;99.90
74901;DHT22;63461;51.416;6.758;2023-04-24T18:30:18;10.70;99.90
74901;DHT22;63461;51.416;6.758;2023-04-24T18:32:48;10.60;99.90
74901;DHT22;63461;51.416;6.758;2023-04-24T18:35:15;10.50;99.90
74901;DHT22;63461;51.416;6.758;2023-04-24T18:37:41;10.50;99.90
74901;DHT22;63461;51.416;6.758;2023-04-24T18:40:08;10.50;99.90
74901;DHT22;63461;51.416;6.758;2023-04-24T18:42:34;10.50;99.90
74901;DHT22;63461;51.416;6.758;2023-04-24T18:45:00;10.50;99.90
74901;DHT22;63461;51.416;6.758;2023-04-24T18:47:27;10.40;99.90
74901;DHT22;63461;51.416;6.758;2023-04-24T18:49:56;10.30;99.90
74901;DHT22;63461;51.416;6.758;2023-04-24T18:52:24;10.30;99.90
74901;DHT22;63461;51.416;6.758;2023-04-24T18:54:50;10.30;99.90
74901;DHT22;63461;51.416;6.758;2023-04-24T19:14:22;10.10;99.90
74901;DHT22;63461;51.416;6.758;2023-04-24T19:17:37;10.00;99.90
74901;DHT22;63461;51.416;6.758;2023-04-24T19:21:42;10.00;99.90
74901;DHT22;63461;51.416;6.758;2023-04-24T19:24:16;10.00;99.90
74901;DHT22;63461;51.416;6.758;2023-04-24T19:44:20;10.00;99.90
74901;DHT22;63461;51.416;6.758;2023-04-24T19:46:57;10.00;99.90
74901;DHT22;63461;51.416;6.758;2023-04-24T19:49:31;9.90;99.90
74901;DHT22;63461;51.416;6.758;2023-04-24T19:52:04;9.90;99.90
74901;DHT22;63461;51.416;6.758;2023-04-24T19:54:41;9.80;99.90
74901;DHT22;63461;51.416;6.758;2023-04-24T20:00:33;9.70;99.90
74901;DHT22;63461;51.416;6.758;2023-04-24T20:04:28;9.70;99.90
74901;DHT22;63461;51.416;6.758;2023-04-24T20:14:40;9.50;99.90
74901;DHT22;63461;51.416;6.758;2023-04-24T20:22:13;9.40;99.90
74901;DHT22;63461;51.416;6.758;2023-04-24T20:28:32;9.40;99.90
74901;DHT22;63461;51.416;6.758;2023-04-24T20:31:03;9.40;99.90
74901;DHT22;63461;51.416;6.758;2023-04-24T20:34:18;9.30;99.90
74901;DHT22;63461;51.416;6.758;2023-04-24T20:37:29;9.30;99.90
74901;DHT22;63461;51.416;6.758;2023-04-24T20:44:21;9.30;99.90
74901;DHT22;63461;51.416;6.758;2023-04-24T20:54:24;9.20;99.90
74901;DHT22;63461;51.416;6.758;2023-04-24T21:05:04;9.00;99.90
74901;DHT22;63461;51.416;6.758;2023-04-24T21:08:22;9.00;99.90
74901;DHT22;63461;51.416;6.758;2023-04-24T21:11:01;9.00;99.90
74901;DHT22;63461;51.416;6.758;2023-04-24T21:13:36;9.00;99.90
74901;DHT22;63461;51.416;6.758;2023-04-24T21:24:14;8.90;99.90
74901;DHT22;63461;51.416;6.758;2023-04-24T21:27:52;8.90;99.90
74901;DHT22;63461;51.416;6.758;2023-04-24T21:30:18;8.90;99.90
74901;DHT22;63461;51.416;6.758;2023-04-24T21:32:45;8.90;99.90
74901;DHT22;63461;51.416;6.758;2023-04-24T21:35:11;8.90;99.90
74901;DHT22;63461;51.416;6.758;2023-04-24T21:37:36;8.90;99.90
74901;DHT22;63461;51.416;6.758;2023-04-24T21:40:05;8.70;99.90
74901;DHT22;63461;51.416;6.758;2023-04-24T21:42:31;8.80;99.90
74901;DHT22;63461;51.416;6.758;2023-04-24T21:44:57;8.70;99.90
74901;DHT22;63461;51.416;6.758;2023-04-24T21:47:23;8.70;99.90
74901;DHT22;63461;51.416;6.758;2023-04-24T21:49:48;8.70;99.90
74901;DHT22;63461;51.416;6.758;2023-04-24T21:52:14;8.60;99.90
74901;DHT22;63461;51.416;6.758;2023-04-24T21:54:40;8.60;99.90
74901;DHT22;63461;51.416;6.758;2023-04-24T21:57:06;8.60;99.90
74901;DHT22;63461;51.416;6.758;2023-04-24T21:59:33;8.60;99.90
74901;DHT22;63461;51.416;6.758;2023-04-24T22:01:58;8.60;99.90
74901;DHT22;63461;51.416;6.758;2023-04-24T22:04:24;8.60;99.90
74901;DHT22;63461;51.416;6.758;2023-04-24T22:06:50;8.60;99.90
74901;DHT22;63461;51.416;6.758;2023-04-24T22:09:18;8.60;99.90
74901;DHT22;63461;51.416;6.758;2023-04-24T22:11:45;8.60;99.90
74901;DHT22;63461;51.416;6.758;2023-04-24T22:14:11;8.60;99.90
74901;DHT22;63461;51.416;6.758;2023-04-24T22:16:36;8.50;99.90
74901;DHT22;63461;51.416;6.758;2023-04-24T22:19:03;8.50;99.90
74901;DHT22;63461;51.416;6.758;2023-04-24T22:21:29;8.50;99.90
74901;DHT22;63461;51.416;6.758;2023-04-24T22:23:55;8.50;99.90
74901;DHT22;63461;51.416;6.758;2023-04-24T22:26:21;8.50;99.90
74901;DHT22;63461;51.416;6.758;2023-04-24T22:28:47;8.50;99.90
74901;DHT22;63461;51.416;6.758;2023-04-24T22:31:13;8.50;99.90
74901;DHT22;63461;51.416;6.758;2023-04-24T22:33:38;8.50;99.90
74901;DHT22;63461;51.416;6.758;2023-04-24T22:36:05;8.50;99.90
74901;DHT22;63461;51.416;6.758;2023-04-24T22:38:31;8.50;99.90
74901;DHT22;63461;51.416;6.758;2023-04-24T22:41:00;8.50;99.90
74901;DHT22;63461;51.416;6.758;2023-04-24T22:43:26;8.50;99.90
74901;DHT22;63461;51.416;6.758;2023-04-24T22:45:52;8.50;99.90
74901;DHT22;63461;51.416;6.758;2023-04-24T22:48:18;8.40;99.90
74901;DHT22;63461;51.416;6.758;2023-04-24T22:50:43;8.50;99.90
74901;DHT22;63461;51.416;6.758;2023-04-24T22:53:09;8.50;99.90
74901;DHT22;63461;51.416;6.758;2023-04-24T22:55:35;8.50;99.90
74901;DHT22;63461;51.416;6.758;2023-04-24T22:58:01;8.40;99.90
74901;DHT22;63461;51.416;6.758;2023-04-24T23:00:27;8.50;99.90
74901;DHT22;63461;51.416;6.758;2023-04-24T23:02:53;8.30;99.90
74901;DHT22;63461;51.416;6.758;2023-04-24T23:05:18;8.40;99.90
74901;DHT22;63461;51.416;6.758;2023-04-24T23:07:47;8.30;99.90
74901;DHT22;63461;51.416;6.758;2023-04-24T23:10:13;8.30;99.90
74901;DHT22;63461;51.416;6.758;2023-04-24T23:12:38;8.30;99.90
74901;DHT22;63461;51.416;6.758;2023-04-24T23:15:04;8.30;99.90
74901;DHT22;63461;51.416;6.758;2023-04-24T23:17:30;8.30;99.90
74901;DHT22;63461;51.416;6.758;2023-04-24T23:19:56;8.30;99.90
74901;DHT22;63461;51.416;6.758;2023-04-24T23:22:22;8.20;99.90
74901;DHT22;63461;51.416;6.758;2023-04-24T23:24:48;8.20;99.90
74901;DHT22;63461;51.416;6.758;2023-04-24T23:27:13;8.20;99.90
74901;DHT22;63461;51.416;6.758;2023-04-24T23:29:39;8.20;99.90
74901;DHT22;63461;51.416;6.758;2023-04-24T23:32:05;8.30;99.90
74901;DHT22;63461;51.416;6.758;2023-04-24T23:34:31;8.30;99.90
74901;DHT22;63461;51.416;6.758;2023-04-24T23:36:59;8.20;99.90
74901;DHT22;63461;51.416;6.758;2023-04-24T23:39:25;8.30;99.90
74901;DHT22;63461;51.416;6.758;2023-04-24T23:41:51;8.20;99.90
74901;DHT22;63461;51.416;6.758;2023-04-24T23:44:18;8.30;99.90
74901;DHT22;63461;51.416;6.758;2023-04-24T23:46:44;8.30;99.90
74901;DHT22;63461;51.416;6.758;2023-04-24T23:49:10;8.30;99.90
74901;DHT22;63461;51.416;6.758;2023-04-24T23:51:36;8.30;99.90
74901;DHT22;63461;51.416;6.758;2023-04-24T23:54:01;8.30;99.90
74901;DHT22;63461;51.416;6.758;2023-04-24T23:56:27;8.30;99.90
74901;DHT22;63461;51.416;6.758;2023-04-24T23:58:54;8.30;99.90
